FYLZ/LUD METAR and TAF weather

Enter ICAO airport designator
Station Type Date Time Source
FYLZ METAR 2019/04/25 22:00 UTC NOAA

FYLZ 252200Z AUTO 18005KT //// // ////// 13/12 Q1015


Station Type Date Time Source
FYLZ Decoded METAR 2019/04/25 22:00 UTC NOAA

Luderitz / Diaz Point, Namibia (FYLZ) 26-41S 015-15E
Apr 25, 2019 - 06:00 PM EDT / 2019.04.25 2200 UTC
Wind: from the S (180 degrees) at 6 MPH (5 KT):0
Temperature: 55 F (13 C)
Dew Point: 53 F (12 C)
Relative Humidity: 93%
Pressure (altimeter): 29.97 in. Hg (1015 hPa)
ob: FYLZ 252200Z AUTO 18005KT //// // ////// 13/12 Q1015
cycle: 22

Station Type Date Time Source
FYLZ TAF 2014/11/15 15:19 UTC NOAA

TAF FYLZ 151400Z 1515/1524 18015G28KT CAVOK
BECMG 1518/1520 16020KT

Example: see airport list